EPLL/LCJ METAR and TAF weather

Enter ICAO airport designator
Station Type Date Time Source
EPLL METAR 2021/09/28 17:00 UTC NOAA

EPLL 281700Z 09006KT 050V120 CAVOK 12/07 Q1024


Station Type Date Time Source
EPLL Decoded METAR 2021/09/28 17:00 UTC NOAA

Station name not available
Sep 28, 2021 - 01:00 PM EDT / 2021.09.28 1700 UTC
Wind: from the E (090 degrees) at 7 MPH (6 KT) (direction variable):0
Visibility: greater than 7 mile(s):0
Temperature: 53 F (12 C)
Dew Point: 44 F (7 C)
Relative Humidity: 71%
Pressure (altimeter): 30.24 in. Hg (1024 hPa)
ob: EPLL 281700Z 09006KT 050V120 CAVOK 12/07 Q1024
cycle: 17

Station Type Date Time Source
EPLL TAF 2021/09/28 12:00 UTC NOAA

TAF EPLL 281130Z 2812/2912 09010KT CAVOK
TEMPO 2909/2912 11018G28KT

Example: see airport list